Time;durP1;ratioP1;P1;durP2;ratioP2;P2;SDS_P1;SDS_P2;PMS_P1;PMS_P2;Temp;Humidity;BMP_temperature;BMP_pressure;BME280_temperature;BME280_humidity;BME280_pressure;Samples;Min_cycle;Max_cycle;Signal;HPM_P1;HPM_P2
2022/04/26 03:37:24;;;;;;;14.80;12.38;;;7.00;99.90;;;;;;4939498;28;89622;-31
2022/04/26 03:39:50;;;;;;;20.58;14.13;;;7.00;99.90;;;;;;4939972;28;89579;-35
2022/04/26 03:42:15;;;;;;;19.20;13.60;;;7.00;99.90;;;;;;4940174;28;91552;-32
2022/04/26 03:44:42;;;;;;;17.52;12.77;;;6.90;99.90;;;;;;4939863;28;89531;-32
2022/04/26 03:47:08;;;;;;;22.92;14.05;;;6.90;99.90;;;;;;4940037;28;89600;-35
2022/04/26 03:49:35;;;;;;;16.23;13.35;;;6.90;99.90;;;;;;4939274;28;88107;-33
2022/04/26 03:52:01;;;;;;;17.80;13.45;;;6.80;99.90;;;;;;4939791;28;90263;-34
2022/04/26 03:54:26;;;;;;;17.75;14.63;;;6.80;99.90;;;;;;4940474;28;89027;-35
2022/04/26 03:56:52;;;;;;;19.42;14.27;;;6.70;99.90;;;;;;4939514;28;89128;-33
2022/04/26 03:59:21;;;;;;;18.90;12.73;;;6.70;99.90;;;;;;4940266;28;89965;-32
2022/04/26 04:01:47;;;;;;;21.17;14.07;;;6.70;99.90;;;;;;4939417;28;90048;-36
2022/04/26 04:04:14;;;;;;;22.33;15.00;;;6.70;99.90;;;;;;4939646;28;90086;-34
2022/04/26 04:06:40;;;;;;;20.25;14.15;;;6.70;99.90;;;;;;4939475;28;90166;-32
2022/04/26 04:09:05;;;;;;;21.08;14.75;;;6.60;99.90;;;;;;4939792;28;88868;-34
2022/04/26 04:11:31;;;;;;;19.15;14.63;;;6.60;99.90;;;;;;4939868;28;90715;-36
2022/04/26 04:13:56;;;;;;;23.98;15.25;;;6.60;99.90;;;;;;4939091;28;90871;-35
2022/04/26 04:16:22;;;;;;;24.67;15.98;;;6.60;99.90;;;;;;4939511;28;90459;-34
2022/04/26 04:21:32;;;;;;;23.00;15.20;;;6.60;99.90;;;;;;4939950;28;90284;-32
2022/04/26 04:23:58;;;;;;;18.48;15.23;;;6.60;99.90;;;;;;4938963;28;89666;-33
2022/04/26 04:26:23;;;;;;;17.65;15.20;;;6.70;99.90;;;;;;4939474;28;89599;-35
2022/04/26 04:28:49;;;;;;;21.48;15.05;;;6.70;99.90;;;;;;4939037;28;89855;-33
2022/04/26 04:31:15;;;;;;;16.75;14.25;;;6.80;99.90;;;;;;4940320;28;89279;-34
2022/04/26 04:33:40;;;;;;;32.63;14.38;;;6.80;99.90;;;;;;4938561;28;89593;-36
2022/04/26 04:36:06;;;;;;;25.52;15.93;;;6.90;99.90;;;;;;4939039;28;89379;-38
2022/04/26 04:38:32;;;;;;;19.95;13.65;;;7.00;99.90;;;;;;4939153;28;88209;-33
2022/04/26 04:40:58;;;;;;;20.90;13.32;;;7.10;99.90;;;;;;4938916;28;90013;-33
2022/04/26 04:43:24;;;;;;;24.70;13.88;;;7.10;99.90;;;;;;4939388;28;89887;-35
2022/04/26 04:45:49;;;;;;;19.67;12.77;;;7.20;99.90;;;;;;4941030;28;91204;-33
2022/04/26 04:48:15;;;;;;;25.85;13.60;;;7.20;99.90;;;;;;4942909;28;88960;-34
2022/04/26 04:50:41;;;;;;;17.67;12.75;;;7.20;99.90;;;;;;4942360;28;89312;-36
2022/04/26 04:53:07;;;;;;;26.73;12.82;;;7.20;99.90;;;;;;4942126;28;89744;-31
2022/04/26 04:55:32;;;;;;;19.88;12.15;;;7.30;99.90;;;;;;4943487;28;90117;-32
2022/04/26 04:57:58;;;;;;;20.88;13.85;;;7.30;99.90;;;;;;4941879;28;88372;-36
2022/04/26 05:00:24;;;;;;;19.27;12.95;;;7.30;99.90;;;;;;4942737;28;90129;-34
2022/04/26 05:02:49;;;;;;;19.27;12.07;;;7.30;99.90;;;;;;4941326;28;92272;-33
2022/04/26 05:05:15;;;;;;;18.65;10.85;;;7.30;99.90;;;;;;4942085;28;90525;-34
2022/04/26 05:07:41;;;;;;;19.63;12.23;;;7.40;99.90;;;;;;4942458;28;88230;-36
2022/04/26 05:10:07;;;;;;;17.45;12.77;;;7.40;99.90;;;;;;4946088;28;90152;-33
2022/04/26 05:12:33;;;;;;;19.15;11.73;;;7.40;99.90;;;;;;4960395;28;89477;-38
2022/04/26 05:14:59;;;;;;;27.20;11.60;;;7.40;99.90;;;;;;4961904;28;90847;-33
2022/04/26 05:17:28;;;;;;;17.80;11.05;;;7.50;99.90;;;;;;4961386;28;89282;-35
2022/04/26 05:19:55;;;;;;;18.33;11.50;;;7.50;99.90;;;;;;4961511;28;89141;-33
2022/04/26 05:22:21;;;;;;;18.25;11.02;;;7.60;99.90;;;;;;4962294;28;89335;-36
2022/04/26 05:24:58;;;;;;;18.02;10.63;;;7.50;99.90;;;;;;4927802;28;89586;-36
2022/04/26 05:27:25;;;;;;;18.80;11.20;;;7.50;99.90;;;;;;4961118;28;88926;-33
2022/04/26 05:29:51;;;;;;;28.85;10.20;;;7.50;99.90;;;;;;4961521;28;90481;-38
2022/04/26 05:32:20;;;;;;;19.55;10.00;;;7.50;99.90;;;;;;4961656;28;89896;-33
2022/04/26 05:34:45;;;;;;;;;;;7.50;99.90;;;;;;4961210;28;90317;-32
2022/04/26 05:37:11;;;;;;;21.95;10.55;;;7.50;99.90;;;;;;4963347;28;89083;-32
2022/04/26 05:39:36;;;;;;;20.85;10.52;;;7.50;99.90;;;;;;4961087;28;89820;-34
2022/04/26 05:42:02;;;;;;;18.08;11.18;;;7.50;99.90;;;;;;4961643;28;89958;-34
2022/04/26 05:44:28;;;;;;;13.63;10.75;;;7.50;99.90;;;;;;4943883;28;88102;-34
2022/04/26 05:46:53;;;;;;;21.38;11.13;;;7.60;99.90;;;;;;4960874;28;87998;-36
2022/04/26 05:49:19;;;;;;;15.82;10.23;;;7.50;99.90;;;;;;4961414;28;90318;-33
2022/04/26 05:51:44;;;;;;;21.50;11.43;;;7.60;99.90;;;;;;4960560;28;91510;-36
2022/04/26 05:54:10;;;;;;;21.45;10.32;;;7.60;99.90;;;;;;4960873;28;90717;-33
2022/04/26 05:56:35;;;;;;;18.38;10.40;;;7.60;99.90;;;;;;4960513;28;88383;-31
2022/04/26 05:59:01;;;;;;;21.25;9.93;;;7.60;99.90;;;;;;4960528;28;90107;-33
2022/04/26 06:01:27;;;;;;;21.20;10.45;;;7.70;99.90;;;;;;4961968;28;89609;-37
2022/04/26 06:03:52;;;;;;;12.40;9.07;;;7.70;99.90;;;;;;4959880;28;89481;-37
2022/04/26 06:06:18;;;;;;;15.98;10.02;;;7.70;99.90;;;;;;4960633;28;88261;-33
2022/04/26 06:08:44;;;;;;;14.80;9.27;;;7.70;99.90;;;;;;4960123;28;90190;-32
2022/04/26 06:11:10;;;;;;;20.85;9.88;;;7.70;99.90;;;;;;4960600;28;89913;-36
2022/04/26 06:13:35;;;;;;;19.83;9.82;;;7.80;99.90;;;;;;4960678;28;89605;-32
2022/04/26 06:16:01;;;;;;;20.33;10.30;;;7.80;99.90;;;;;;4961019;28;89936;-35
2022/04/26 06:18:26;;;;;;;17.30;9.18;;;7.90;99.90;;;;;;4960503;28;91593;-33
2022/04/26 06:20:52;;;;;;;17.10;9.68;;;7.90;99.90;;;;;;4960442;28;89744;-34
2022/04/26 06:23:18;;;;;;;17.55;10.00;;;7.90;99.90;;;;;;4961654;28;89202;-32
2022/04/26 06:25:43;;;;;;;22.80;9.55;;;7.90;99.90;;;;;;4960876;28;89991;-32
2022/04/26 06:28:09;;;;;;;17.00;9.85;;;8.00;99.90;;;;;;4960300;28;89167;-34
2022/04/26 06:30:41;;;;;;;17.65;10.48;;;8.00;99.90;;;;;;4958614;28;89784;-35
2022/04/26 06:33:07;;;;;;;16.02;11.00;;;8.00;99.90;;;;;;4959114;28;89543;-33
2022/04/26 06:35:32;;;;;;;22.70;10.35;;;8.00;99.90;;;;;;4957939;28;90133;-33
2022/04/26 06:37:58;;;;;;;19.88;10.38;;;8.10;99.90;;;;;;4958057;28;89778;-38
2022/04/26 06:40:25;;;;;;;19.90;11.27;;;8.20;99.90;;;;;;4958257;28;90912;-32
2022/04/26 06:42:53;;;;;;;15.68;10.60;;;8.20;99.90;;;;;;4957830;28;90149;-36
2022/04/26 06:45:19;;;;;;;12.45;10.07;;;8.20;99.90;;;;;;4958048;28;89804;-32
2022/04/26 06:47:44;;;;;;;20.67;10.70;;;8.20;99.90;;;;;;4958362;28;90243;-35
2022/04/26 06:50:10;;;;;;;11.50;10.25;;;8.30;99.90;;;;;;4958346;28;89646;-33
2022/04/26 06:52:36;;;;;;;17.70;10.80;;;8.40;99.90;;;;;;4957733;28;89732;-34
2022/04/26 06:55:02;;;;;;;17.88;9.45;;;8.40;99.90;;;;;;4958475;28;88383;-32
2022/04/26 06:57:28;;;;;;;16.75;11.05;;;8.50;99.90;;;;;;4958493;28;89069;-32
2022/04/26 06:59:53;;;;;;;16.58;12.00;;;8.50;99.90;;;;;;4958378;28;89335;-33
2022/04/26 07:02:20;;;;;;;18.00;11.48;;;8.50;99.90;;;;;;4958002;28;89310;-33
2022/04/26 07:04:45;;;;;;;16.95;12.70;;;8.50;99.90;;;;;;4957980;28;90204;-33
2022/04/26 07:07:11;;;;;;;24.48;12.77;;;8.60;99.90;;;;;;4957920;28;92294;-33
2022/04/26 07:09:37;;;;;;;15.18;11.75;;;8.60;99.90;;;;;;4957149;28;90209;-35
2022/04/26 07:12:03;;;;;;;21.33;12.02;;;8.60;99.90;;;;;;4958356;28;89182;-34
2022/04/26 07:14:29;;;;;;;17.33;10.77;;;8.70;99.90;;;;;;4940286;28;88609;-33
2022/04/26 07:16:55;;;;;;;18.08;11.05;;;8.80;99.90;;;;;;4958185;28;89969;-37
2022/04/26 07:19:23;;;;;;;14.93;11.00;;;8.80;99.90;;;;;;4957659;28;89691;-35
2022/04/26 07:21:48;;;;;;;17.05;9.82;;;8.90;99.90;;;;;;4957676;28;89960;-36
2022/04/26 07:24:15;;;;;;;10.75;9.05;;;8.90;99.90;;;;;;4959030;28;89909;-38
2022/04/26 07:26:42;;;;;;;11.63;9.63;;;8.90;99.90;;;;;;4958558;28;90486;-34
2022/04/26 07:29:08;;;;;;;11.95;9.57;;;9.00;99.90;;;;;;4957683;28;90680;-36
2022/04/26 07:31:35;;;;;;;13.77;11.15;;;9.10;99.90;;;;;;4958487;28;89785;-39
2022/04/26 07:36:45;;;;;;;21.10;9.93;;;9.10;99.90;;;;;;4957512;28;89112;-35
2022/04/26 07:39:10;;;;;;;14.43;9.70;;;9.10;99.90;;;;;;4958820;28;89881;-36
2022/04/26 07:41:36;;;;;;;17.92;8.93;;;9.20;99.90;;;;;;4957387;28;89661;-35
2022/04/26 07:44:02;;;;;;;13.75;8.95;;;9.20;99.90;;;;;;4958112;28;89101;-36
2022/04/26 07:46:28;;;;;;;11.98;9.73;;;9.20;99.90;;;;;;4958931;28;90432;-33
2022/04/26 07:48:55;;;;;;;12.50;10.68;;;9.30;99.90;;;;;;4957601;28;89400;-31
2022/04/26 07:51:21;;;;;;;19.85;9.40;;;9.30;99.90;;;;;;4957378;28;90078;-38
2022/04/26 07:53:46;;;;;;;13.55;9.88;;;9.40;99.90;;;;;;4957318;28;89947;-35
2022/04/26 07:56:12;;;;;;;10.02;9.02;;;9.40;99.90;;;;;;4957523;28;90059;-36
2022/04/26 07:58:38;;;;;;;16.67;8.43;;;9.50;99.90;;;;;;4957886;28;89569;-33
2022/04/26 08:01:06;;;;;;;12.50;9.18;;;9.50;99.90;;;;;;4957922;28;89794;-32
2022/04/26 08:03:33;;;;;;;15.43;9.82;;;9.60;99.90;;;;;;4957781;28;89645;-35
2022/04/26 08:05:59;;;;;;;14.30;9.43;;;9.80;99.90;;;;;;4958573;28;91754;-34
2022/04/26 08:08:25;;;;;;;9.98;8.75;;;9.70;99.90;;;;;;4958151;28;90568;-34
2022/04/26 08:10:50;;;;;;;16.23;9.98;;;9.60;99.90;;;;;;4957427;28;94911;-33
2022/04/26 08:13:16;;;;;;;9.43;7.63;;;9.80;99.90;;;;;;4957915;28;88602;-33
2022/04/26 08:15:42;;;;;;;10.85;7.78;;;9.80;99.90;;;;;;4957155;28;90307;-33
2022/04/26 08:18:07;;;;;;;24.30;9.45;;;9.90;99.90;;;;;;4957439;28;90612;-37
2022/04/26 08:20:33;;;;;;;11.73;7.88;;;9.90;99.90;;;;;;4956996;28;91311;-35
2022/04/26 08:22:59;;;;;;;10.27;7.65;;;9.90;99.90;;;;;;4956443;28;89689;-34
2022/04/26 08:28:09;;;;;;;8.25;7.45;;;10.30;99.90;;;;;;4957599;28;90125;-33
2022/04/26 08:30:34;;;;;;;9.68;7.88;;;10.40;99.90;;;;;;4957921;28;88891;-38
2022/04/26 08:33:00;;;;;;;8.38;7.22;;;10.50;99.90;;;;;;4957470;28;89259;-33
2022/04/26 08:35:27;;;;;;;10.95;7.28;;;10.40;99.90;;;;;;4957105;28;90971;-33
2022/04/26 08:37:53;;;;;;;10.55;8.13;;;10.40;99.90;;;;;;4956478;28;89822;-34
2022/04/26 08:40:19;;;;;;;11.10;7.35;;;10.40;99.90;;;;;;4957591;28;89670;-36
2022/04/26 08:42:46;;;;;;;14.45;8.50;;;10.40;99.90;;;;;;4957160;28;89379;-36
2022/04/26 08:45:15;;;;;;;13.55;8.10;;;10.30;99.90;;;;;;4957288;28;91315;-32
2022/04/26 08:53:11;;;;;;;9.82;7.53;;;10.80;99.90;;;;;;4958613;28;89629;-33
2022/04/26 08:55:48;;;;;;;11.95;8.57;;;10.90;99.90;;;;;;4956801;28;90639;-32
2022/04/26 08:58:15;;;;;;;7.90;7.10;;;11.20;99.90;;;;;;4956589;28;90152;-33
2022/04/26 09:01:03;;;;;;;8.00;7.13;;;11.30;99.90;;;;;;4957530;28;89432;-34
2022/04/26 09:03:33;;;;;;;9.60;7.00;;;11.90;99.90;;;;;;4957487;28;89544;-39
2022/04/26 09:06:17;;;;;;;11.50;7.45;;;12.00;99.90;;;;;;4956731;28;90748;-39
2022/04/26 09:08:44;;;;;;;12.60;7.22;;;11.70;99.90;;;;;;4956416;28;90872;-37
2022/04/26 09:11:34;;;;;;;10.90;6.70;;;11.60;99.90;;;;;;4956629;28;90593;-37
2022/04/26 09:14:02;;;;;;;11.15;6.10;;;11.40;99.90;;;;;;4956917;28;88673;-34
2022/04/26 09:16:28;;;;;;;11.00;6.85;;;11.20;99.90;;;;;;4957420;28;89148;-39
2022/04/26 09:18:54;;;;;;;11.88;7.50;;;11.20;99.90;;;;;;4957345;28;89594;-37
2022/04/26 09:21:21;;;;;;;10.15;6.63;;;11.10;99.90;;;;;;4956905;28;90181;-34
2022/04/26 09:23:47;;;;;;;6.95;6.18;;;11.20;99.90;;;;;;4956834;28;88712;-35
2022/04/26 09:26:17;;;;;;;7.47;5.93;;;11.20;99.90;;;;;;4957568;28;91043;-34
2022/04/26 09:28:47;;;;;;;6.80;6.10;;;11.30;99.90;;;;;;4957261;28;89552;-34
2022/04/26 09:31:24;;;;;;;10.63;6.25;;;11.50;99.90;;;;;;4958211;28;89173;-35
2022/04/26 09:33:53;;;;;;;10.65;6.18;;;11.40;99.90;;;;;;4958670;28;89835;-36
2022/04/26 09:36:20;;;;;;;;;;;11.40;99.90;;;;;;4960613;28;90826;-36
2022/04/26 09:38:55;;;;;;;8.13;6.07;;;11.20;99.90;;;;;;4960687;28;89774;-36
2022/04/26 09:41:21;;;;;;;16.45;7.07;;;11.50;99.90;;;;;;4960394;28;89747;-36
2022/04/26 09:44:07;;;;;;;10.85;6.40;;;11.70;99.90;;;;;;4959859;28;88514;-40
2022/04/26 09:46:49;;;;;;;7.00;6.10;;;11.80;99.90;;;;;;4959943;28;90408;-35
2022/04/26 09:49:21;;;;;;;8.52;6.03;;;11.40;99.90;;;;;;4960361;28;89658;-37
2022/04/26 09:51:49;;;;;;;9.88;6.40;;;11.50;99.90;;;;;;4960335;28;89653;-36
2022/04/26 09:54:15;;;;;;;12.10;6.43;;;11.70;99.90;;;;;;4960419;28;89192;-37
2022/04/26 09:56:46;;;;;;;12.00;6.90;;;11.70;99.90;;;;;;4959323;28;90233;-34
2022/04/26 09:59:15;;;;;;;10.60;6.68;;;11.90;99.90;;;;;;4958927;28;90456;-36
2022/04/26 10:01:43;;;;;;;11.00;6.50;;;12.10;99.90;;;;;;4958778;28;90880;-39
2022/04/26 10:04:20;;;;;;;8.90;5.80;;;11.90;99.90;;;;;;4959862;28;88727;-38
2022/04/26 10:06:49;;;;;;;10.23;6.63;;;12.00;99.90;;;;;;4959674;28;89524;-37
2022/04/26 10:09:15;;;;;;;10.68;6.70;;;12.20;99.90;;;;;;4959885;28;89785;-37
2022/04/26 10:11:41;;;;;;;5.38;4.88;;;12.40;99.90;;;;;;4959139;28;89625;-37
2022/04/26 10:14:09;;;;;;;10.70;6.03;;;12.30;99.90;;;;;;4960055;28;89786;-35
2022/04/26 10:16:36;;;;;;;12.30;6.65;;;12.60;99.90;;;;;;4960184;28;90786;-35
2022/04/26 10:19:09;;;;;;;10.75;5.80;;;12.70;99.90;;;;;;4959199;28;89802;-36
2022/04/26 10:21:35;;;;;;;9.18;6.50;;;12.90;99.90;;;;;;4958846;28;89139;-35
2022/04/26 10:24:04;;;;;;;10.48;6.47;;;13.00;99.90;;;;;;4959127;28;89444;-36
2022/04/26 10:26:33;;;;;;;9.48;5.88;;;13.40;99.90;;;;;;4960022;28;91372;-34
2022/04/26 10:29:02;;;;;;;12.68;6.32;;;13.70;99.90;;;;;;4959050;28;89231;-34
2022/04/26 10:31:38;;;;;;;8.18;5.93;;;13.60;99.90;;;;;;4958949;28;90549;-36
2022/04/26 10:34:25;;;;;;;8.45;6.00;;;14.10;99.90;;;;;;4957135;28;89665;-36
2022/04/26 10:37:06;;;;;;;6.45;5.85;;;13.70;99.90;;;;;;4958821;28;91044;-39
2022/04/26 10:39:45;;;;;;;14.77;5.68;;;13.80;99.90;;;;;;4941462;28;89881;-37
2022/04/26 10:42:17;;;;;;;;;;;13.60;99.90;;;;;;4959593;28;90250;-38
2022/04/26 10:44:44;;;;;;;7.22;6.50;;;13.90;99.90;;;;;;4959641;28;88875;-37
2022/04/26 10:47:18;;;;;;;7.30;5.88;;;13.70;99.90;;;;;;4958726;28;90452;-35
2022/04/26 10:49:45;;;;;;;7.90;6.35;;;13.50;99.90;;;;;;4957909;28;90176;-36
2022/04/26 10:52:10;;;;;;;12.50;5.70;;;13.80;99.90;;;;;;4959001;28;89617;-35
2022/04/26 10:55:03;;;;;;;10.07;6.20;;;13.40;99.90;;;;;;4959393;28;89561;-38
2022/04/26 10:57:31;;;;;;;8.60;6.45;;;13.70;99.90;;;;;;4958464;28;90812;-35
2022/04/26 11:00:04;;;;;;;10.40;7.38;;;13.80;99.90;;;;;;4958442;28;88672;-38
2022/04/26 11:02:36;;;;;;;11.18;5.88;;;13.50;99.90;;;;;;4958432;28;89867;-35
2022/04/26 11:05:10;;;;;;;6.72;6.10;;;13.60;99.90;;;;;;4959128;28;89283;-36
2022/04/26 11:07:41;;;;;;;11.75;6.90;;;13.50;99.90;;;;;;4957686;28;90389;-34
2022/04/26 11:10:11;;;;;;;8.73;6.00;;;13.40;98.90;;;;;;4940633;28;90325;-36
2022/04/26 11:12:38;;;;;;;8.60;6.05;;;13.40;99.90;;;;;;4957800;28;89623;-39
2022/04/26 11:15:15;;;;;;;6.17;5.53;;;13.70;99.90;;;;;;4958397;28;88870;-34
2022/04/26 11:17:42;;;;;;;10.00;7.15;;;13.70;99.90;;;;;;4958103;28;88903;-38
2022/04/26 11:20:24;;;;;;;7.07;6.28;;;14.20;96.90;;;;;;4958434;28;89750;-34
2022/04/26 11:28:00;;;;;;;8.85;6.20;;;14.10;97.70;;;;;;4958438;28;88630;-39
2022/04/26 11:28:27;;;;;;;9.07;5.70;;;14.40;99.90;;;;;;4958706;28;90428;-39
2022/04/26 11:30:56;;;;;;;6.47;5.35;;;14.10;99.90;;;;;;4958150;28;89739;-35
2022/04/26 11:33:23;;;;;;;10.93;6.03;;;13.40;99.90;;;;;;4957898;28;89260;-36
2022/04/26 11:36:04;;;;;;;9.23;7.38;;;13.50;99.90;;;;;;4957938;28;88677;-36
2022/04/26 11:38:30;;;;;;;7.40;6.70;;;13.80;99.90;;;;;;4958143;28;90992;-34
2022/04/26 11:41:00;;;;;;;10.02;6.25;;;13.70;92.40;;;;;;4956607;28;90347;-34
2022/04/26 11:43:31;;;;;;;7.97;5.75;;;13.60;96.80;;;;;;4956642;28;90361;-35
2022/04/26 11:45:57;;;;;;;9.98;6.55;;;13.70;99.90;;;;;;4957270;28;88602;-33
2022/04/26 11:48:25;;;;;;;7.50;5.55;;;13.50;97.50;;;;;;4958160;28;90846;-34
2022/04/26 11:50:53;;;;;;;11.95;6.45;;;13.40;99.90;;;;;;4957764;28;90575;-36
2022/04/26 11:53:27;;;;;;;8.20;6.47;;;13.40;99.90;;;;;;4957755;28;89940;-34
2022/04/26 11:55:55;;;;;;;10.23;6.65;;;13.60;99.90;;;;;;4956326;28;88665;-38
2022/04/26 11:58:38;;;;;;;8.50;6.53;;;13.80;98.70;;;;;;4958217;28;90121;-37
2022/04/26 12:01:07;;;;;;;7.57;5.72;;;13.80;99.70;;;;;;4957118;28;89277;-34
2022/04/26 12:03:54;;;;;;;6.53;5.60;;;13.70;99.90;;;;;;4956234;28;89340;-38
2022/04/26 12:06:25;;;;;;;9.50;6.80;;;14.30;98.60;;;;;;4956870;28;90223;-38
2022/04/26 12:08:55;;;;;;;8.45;6.28;;;14.80;94.80;;;;;;4957161;28;90442;-36
2022/04/26 12:11:29;;;;;;;11.88;6.18;;;14.60;82.90;;;;;;4956316;28;89815;-39
2022/04/26 12:14:16;;;;;;;7.40;6.32;;;14.10;98.20;;;;;;4956943;28;90167;-35
2022/04/26 12:16:47;;;;;;;8.40;5.80;;;14.00;92.80;;;;;;4958228;28;90334;-34
2022/04/26 12:19:14;;;;;;;7.00;5.95;;;13.80;88.50;;;;;;4957248;28;90110;-37
2022/04/26 12:21:55;;;;;;;8.98;5.60;;;13.80;93.70;;;;;;4956928;28;91763;-36
2022/04/26 12:24:23;;;;;;;6.53;5.88;;;13.80;93.00;;;;;;4957306;28;89420;-34
2022/04/26 12:27:10;;;;;;;7.80;6.47;;;13.40;93.80;;;;;;4957434;28;89933;-35
2022/04/26 12:29:36;;;;;;;10.15;5.45;;;13.90;96.70;;;;;;4956939;28;92381;-36
2022/04/26 12:32:05;;;;;;;8.65;5.28;;;14.40;90.10;;;;;;4956404;28;90956;-34
2022/04/26 12:34:32;;;;;;;5.78;4.28;;;14.60;88.30;;;;;;4991130;22;91547;-35
2022/04/26 12:37:16;;;;;;;8.20;6.60;;;14.20;89.00;;;;;;4956978;28;88920;-35
2022/04/26 12:39:44;;;;;;;9.95;6.47;;;14.20;95.40;;;;;;4956314;28;90912;-33
2022/04/26 12:42:17;;;;;;;15.27;6.18;;;14.00;99.10;;;;;;4957118;28;90115;-34
2022/04/26 12:44:49;;;;;;;8.02;5.22;;;13.90;99.90;;;;;;4956733;28;88957;-37
2022/04/26 12:52:51;;;;;;;7.30;4.97;;;14.30;84.70;;;;;;4956689;28;89994;-36
2022/04/26 12:55:28;;;;;;;15.48;5.35;;;14.00;82.00;;;;;;4956863;28;89890;-37
2022/04/26 12:58:01;;;;;;;11.48;5.32;;;13.70;86.10;;;;;;4956807;28;89109;-33
2022/04/26 13:00:28;;;;;;;5.45;4.72;;;13.80;91.70;;;;;;4956267;28;90039;-34
2022/04/26 13:02:56;;;;;;;8.25;5.93;;;14.00;87.40;;;;;;4955776;28;89889;-34
2022/04/26 13:05:22;;;;;;;8.55;5.88;;;13.90;87.40;;;;;;4957182;28;90059;-32
2022/04/26 13:07:48;;;;;;;10.50;6.05;;;13.80;76.60;;;;;;4960233;28;90213;-32
2022/04/26 13:10:15;;;;;;;6.57;5.05;;;13.70;93.40;;;;;;4959558;28;90257;-35
2022/04/26 13:12:41;;;;;;;8.80;4.23;;;13.70;92.10;;;;;;4959356;28;90480;-35
2022/04/26 13:15:08;;;;;;;5.78;5.28;;;14.10;90.10;;;;;;4959900;28;89473;-33
2022/04/26 13:17:37;;;;;;;5.60;4.75;;;13.50;76.90;;;;;;4960146;28;88180;-33
2022/04/26 13:20:08;;;;;;;10.15;5.03;;;13.50;81.50;;;;;;4959371;28;90280;-33
2022/04/26 13:22:35;;;;;;;6.10;5.15;;;14.10;78.10;;;;;;4958630;28;90599;-33
2022/04/26 13:25:03;;;;;;;5.68;5.07;;;14.10;81.50;;;;;;4959668;28;89696;-36
2022/04/26 13:27:33;;;;;;;14.77;6.00;;;14.50;84.80;;;;;;4960388;28;89070;-36
2022/04/26 13:29:59;;;;;;;6.05;5.45;;;14.80;81.20;;;;;;4960236;28;90194;-34
2022/04/26 13:32:27;;;;;;;8.32;4.38;;;14.60;69.50;;;;;;4959822;28;89353;-35
2022/04/26 13:34:53;;;;;;;5.88;4.53;;;14.60;75.90;;;;;;4958572;28;89107;-36
2022/04/26 13:37:19;;;;;;;8.35;4.43;;;14.80;72.50;;;;;;4960318;28;89079;-35
2022/04/26 13:39:45;;;;;;;4.40;4.00;;;14.90;65.80;;;;;;4959265;28;90157;-35
2022/04/26 13:42:15;;;;;;;5.18;4.28;;;14.40;64.50;;;;;;4959246;28;89444;-33
2022/04/26 13:44:41;;;;;;;11.23;5.00;;;14.60;70.30;;;;;;4959287;28;89878;-34
2022/04/26 13:47:08;;;;;;;5.38;3.88;;;14.50;70.40;;;;;;4959081;28;89448;-36
2022/04/26 13:49:35;;;;;;;7.90;5.22;;;14.50;69.70;;;;;;4959418;28;90842;-34
2022/04/26 13:52:02;;;;;;;11.07;4.88;;;14.20;74.60;;;;;;4958966;28;88643;-33
2022/04/26 13:54:28;;;;;;;7.50;4.65;;;14.40;82.00;;;;;;4959760;28;89260;-36
2022/04/26 13:56:54;;;;;;;8.95;4.35;;;14.10;69.30;;;;;;4959538;28;88108;-33
2022/04/26 13:59:22;;;;;;;5.15;4.65;;;13.90;75.90;;;;;;4958341;28;89306;-33
2022/04/26 14:01:52;;;;;;;4.68;3.50;;;13.80;75.40;;;;;;4958493;28;89823;-33
2022/04/26 14:04:18;;;;;;;4.90;3.85;;;13.60;76.40;;;;;;4977629;28;89550;-33
2022/04/26 14:06:44;;;;;;;4.68;4.07;;;13.60;78.70;;;;;;4979613;28;89023;-34
2022/04/26 14:09:09;;;;;;;4.55;4.03;;;13.60;76.00;;;;;;4978880;28;90121;-34
2022/04/26 14:11:35;;;;;;;4.97;4.28;;;13.70;80.40;;;;;;4978908;28;89653;-35
2022/04/26 14:22:14;;;;;;;5.20;4.55;;;13.40;65.00;;;;;;4978684;28;89805;-34
2022/04/26 14:24:39;;;;;;;5.22;3.85;;;13.20;69.10;;;;;;4978602;28;89862;-35
2022/04/26 14:27:05;;;;;;;5.53;3.67;;;13.40;75.50;;;;;;4978503;28;88731;-35
2022/04/26 14:29:32;;;;;;;5.03;4.53;;;13.50;73.60;;;;;;4978854;28;90536;-38
2022/04/26 14:31:58;;;;;;;7.30;4.22;;;13.50;65.20;;;;;;4978623;28;89783;-33
2022/04/26 14:34:24;;;;;;;13.23;5.18;;;13.80;69.80;;;;;;4978602;28;90061;-33
2022/04/26 14:36:49;;;;;;;6.18;4.20;;;13.80;70.80;;;;;;4978265;28;89927;-33
2022/04/26 14:39:15;;;;;;;10.02;4.28;;;13.80;68.60;;;;;;4978625;28;88936;-34
2022/04/26 14:41:44;;;;;;;5.68;4.15;;;13.70;66.10;;;;;;4977999;28;90757;-34
2022/04/26 14:44:10;;;;;;;4.32;3.83;;;13.80;68.10;;;;;;4978879;28;90454;-32
2022/04/26 14:46:36;;;;;;;6.07;4.45;;;13.60;64.70;;;;;;4978492;28;88357;-32
2022/04/26 14:49:06;;;;;;;5.28;4.47;;;13.20;64.60;;;;;;4977775;28;90375;-38
2022/04/26 14:51:32;;;;;;;4.30;3.65;;;13.40;72.40;;;;;;4978006;28;89767;-36
2022/04/26 14:53:58;;;;;;;4.43;3.50;;;13.20;65.60;;;;;;4978934;28;90369;-33
2022/04/26 14:56:24;;;;;;;4.72;4.07;;;13.10;68.50;;;;;;4978040;28;89446;-37
2022/04/26 14:58:50;;;;;;;5.45;4.65;;;13.00;68.90;;;;;;4978334;28;89145;-35
2022/04/26 15:01:16;;;;;;;4.63;3.75;;;12.90;70.40;;;;;;4977631;28;90451;-32
2022/04/26 15:03:44;;;;;;;5.75;3.65;;;12.90;76.70;;;;;;4977569;28;90493;-33
2022/04/26 15:06:10;;;;;;;6.80;3.90;;;13.10;72.30;;;;;;4978028;28;87802;-34
2022/04/26 15:11:20;;;;;;;4.88;3.85;;;13.10;74.10;;;;;;4978178;28;89901;-33
2022/04/26 15:16:39;;;;;;;5.28;3.67;;;13.40;70.00;;;;;;4977912;28;89207;-32
2022/04/26 15:19:09;;;;;;;10.07;4.55;;;13.40;70.20;;;;;;4978400;28;90397;-34
2022/04/26 15:21:35;;;;;;;8.63;4.38;;;13.20;68.80;;;;;;4977293;28;90097;-33
2022/04/26 15:24:02;;;;;;;5.32;4.47;;;13.20;74.80;;;;;;4978498;28;89639;-35
2022/04/26 15:26:28;;;;;;;7.45;4.72;;;13.40;75.90;;;;;;4977052;28;89261;-34
2022/04/26 15:28:55;;;;;;;4.72;3.70;;;13.30;69.40;;;;;;4976874;28;90270;-34
2022/04/26 15:31:21;;;;;;;4.60;4.18;;;13.20;69.40;;;;;;4978185;28;89704;-34
2022/04/26 15:33:48;;;;;;;4.75;4.32;;;13.30;79.00;;;;;;4977083;28;89594;-33
2022/04/26 15:36:15;;;;;;;6.20;4.80;;;13.50;75.30;;;;;;4977913;28;89654;-33
2022/04/26 15:38:42;;;;;;;5.55;4.45;;;13.40;72.40;;;;;;4977660;28;90234;-35
2022/04/26 15:41:07;;;;;;;4.47;4.07;;;13.40;78.80;;;;;;4977197;28;90096;-35
2022/04/26 15:43:34;;;;;;;7.82;4.75;;;13.40;85.50;;;;;;4959618;28;91385;-35
2022/04/26 15:46:02;;;;;;;6.85;4.95;;;13.50;88.70;;;;;;4978219;28;88363;-33
2022/04/26 15:48:28;;;;;;;6.00;4.65;;;13.50;89.70;;;;;;4977448;28;89309;-33
2022/04/26 15:50:54;;;;;;;4.93;4.50;;;13.40;91.00;;;;;;4976097;28;90893;-35
2022/04/26 15:53:19;;;;;;;8.50;5.45;;;13.70;92.70;;;;;;4977568;28;90486;-33
2022/04/26 15:55:45;;;;;;;5.18;4.63;;;13.40;91.60;;;;;;4976791;28;88971;-37
2022/04/26 15:58:11;;;;;;;5.30;4.50;;;13.30;92.40;;;;;;4977924;28;90065;-34
2022/04/26 16:00:37;;;;;;;7.10;4.80;;;13.30;91.50;;;;;;4976897;28;89738;-35
2022/04/26 16:03:03;;;;;;;6.40;5.80;;;13.10;88.90;;;;;;4976611;28;89754;-35
2022/04/26 16:05:29;;;;;;;8.45;5.55;;;13.10;96.10;;;;;;4977915;28;88828;-35
2022/04/26 16:07:55;;;;;;;12.35;5.47;;;12.90;95.40;;;;;;4977408;28;91172;-36
2022/04/26 16:21:22;;;;;;;14.57;5.45;;;12.40;97.50;;;;;;4976361;28;89708;-33
2022/04/26 16:23:48;;;;;;;9.70;5.05;;;12.30;98.30;;;;;;4976963;28;90285;-32
2022/04/26 16:26:15;;;;;;;7.82;5.00;;;12.20;99.40;;;;;;4977371;28;87672;-34
2022/04/26 16:28:40;;;;;;;5.35;4.60;;;12.20;97.90;;;;;;4976659;28;90747;-35
2022/04/26 16:31:06;;;;;;;6.35;5.28;;;12.10;99.90;;;;;;4976170;28;89588;-38
2022/04/26 16:33:32;;;;;;;7.70;4.88;;;12.10;99.90;;;;;;4977737;28;89558;-36
2022/04/26 16:35:58;;;;;;;9.30;4.97;;;12.00;97.20;;;;;;4976477;28;88893;-34
2022/04/26 16:38:23;;;;;;;4.88;4.47;;;11.90;94.80;;;;;;4975664;28;90570;-36
2022/04/26 16:40:50;;;;;;;6.10;5.45;;;12.00;99.90;;;;;;4976003;28;91668;-35
2022/04/26 16:43:17;;;;;;;4.47;4.07;;;11.90;99.90;;;;;;4979633;28;90318;-38
2022/04/26 16:45:43;;;;;;;8.05;4.18;;;11.90;99.90;;;;;;4980618;28;89547;-36
2022/04/26 16:48:09;;;;;;;11.45;4.05;;;11.90;99.90;;;;;;4980807;28;89217;-37
2022/04/26 16:50:35;;;;;;;5.10;4.65;;;11.70;99.90;;;;;;4979245;28;90038;-38
2022/04/26 16:53:00;;;;;;;34.00;21.25;;;11.60;99.90;;;;;;4979857;28;90302;-33
2022/04/26 16:55:27;;;;;;;10.63;9.52;;;11.70;99.90;;;;;;4979197;28;88368;-35
2022/04/26 16:57:53;;;;;;;8.05;7.22;;;11.60;99.90;;;;;;4980373;28;88780;-37
2022/04/26 17:00:19;;;;;;;5.45;4.95;;;11.40;99.90;;;;;;4980153;28;90911;-31
2022/04/26 17:02:45;;;;;;;12.98;11.38;;;11.50;99.90;;;;;;4979433;28;89647;-33
2022/04/26 17:05:12;;;;;;;7.18;6.45;;;11.30;99.90;;;;;;4978896;28;90273;-34
2022/04/26 17:07:39;;;;;;;6.43;5.07;;;11.20;99.90;;;;;;4979196;28;91094;-33
2022/04/26 17:10:05;;;;;;;5.15;4.72;;;11.10;99.90;;;;;;4980251;28;89637;-33